Terminal Aerodrome Forecast
Issued by NWS

Home | Current Version | Previous Version | Text Only | Print | Product List | Glossary On
Versions: 1 2 3 4 5 6 7 8 9 10 11 12 13 14 15 16
159
FTUS43 KBIS 080521
TAFJMS
TAF
KJMS 080521Z 0806/0906 33027G38KT P6SM -SN OVC018
     FM080700 33027G37KT P6SM OVC020
     FM081700 33027G37KT P6SM SCT015
     FM082100 34024G34KT P6SM SCT140
     FM082300 33017KT P6SM BKN200=

USA.gov is the U.S. government's official web portal to all federal, state and local government web resources and services.